Time;durP1;ratioP1;P1;durP2;ratioP2;P2;SDS_P1;SDS_P2;PMS_P1;PMS_P2;Temp;Humidity;BMP_temperature;BMP_pressure;BME280_temperature;BME280_humidity;BME280_pressure;Samples;Min_cycle;Max_cycle;Signal;HPM_P1;HPM_P2
2023/06/07 00:01:42;;;;;;;11.50;5.65;;;10.50;99.90;;;;;;5112998;27;20089;-58
2023/06/07 00:04:11;;;;;;;19.15;6.25;;;10.50;99.90;;;;;;5112823;27;20054;-58
2023/06/07 00:06:39;;;;;;;19.05;6.10;;;10.50;99.90;;;;;;5095268;27;20051;-58
2023/06/07 00:09:06;;;;;;;12.45;5.43;;;10.50;99.90;;;;;;5113125;27;20092;-58
2023/06/07 00:11:33;;;;;;;16.27;5.55;;;10.40;99.90;;;;;;5094748;27;20096;-58
2023/06/07 00:14:01;;;;;;;16.13;6.53;;;10.40;99.90;;;;;;5114240;27;20392;-57
2023/06/07 00:16:28;;;;;;;18.70;6.72;;;10.40;99.90;;;;;;5098905;27;20059;-57
2023/06/07 00:18:55;;;;;;;11.15;6.32;;;10.40;99.90;;;;;;5099792;27;20108;-57
2023/06/07 00:21:23;;;;;;;13.48;5.45;;;10.40;99.90;;;;;;5116514;27;20396;-57
2023/06/07 00:23:50;;;;;;;18.13;6.18;;;10.40;99.90;;;;;;5116785;27;20101;-58
2023/06/07 00:26:17;;;;;;;14.35;5.65;;;10.40;99.90;;;;;;5118499;27;20039;-58
2023/06/07 00:28:44;;;;;;;11.65;5.57;;;10.30;99.90;;;;;;5099376;27;20055;-58
2023/06/07 00:31:12;;;;;;;15.95;5.95;;;10.30;99.90;;;;;;5116341;27;20071;-59
2023/06/07 00:33:39;;;;;;;22.40;6.55;;;10.40;99.90;;;;;;5116006;27;20104;-58
2023/06/07 00:36:06;;;;;;;10.88;5.85;;;10.40;99.90;;;;;;5135582;27;20047;-58
2023/06/07 00:38:33;;;;;;;19.95;5.70;;;10.40;99.90;;;;;;5134540;27;20043;-58
2023/06/07 00:41:00;;;;;;;12.63;5.80;;;10.40;99.90;;;;;;5155225;27;20096;-59
2023/06/07 00:43:27;;;;;;;18.50;6.35;;;10.40;99.90;;;;;;5154813;27;20130;-58
2023/06/07 00:45:54;;;;;;;16.35;6.25;;;10.40;99.90;;;;;;5117922;27;20044;-58
2023/06/07 00:48:22;;;;;;;12.27;5.22;;;10.30;99.90;;;;;;5099175;27;20047;-58
2023/06/07 00:50:51;;;;;;;15.93;6.10;;;10.30;99.90;;;;;;5120403;27;20035;-58
2023/06/07 00:53:18;;;;;;;14.40;6.25;;;10.30;99.90;;;;;;5098058;27;20108;-59
2023/06/07 00:55:46;;;;;;;15.75;5.47;;;10.30;99.90;;;;;;5116122;27;20454;-58
2023/06/07 00:58:12;;;;;;;12.57;4.22;;;10.30;99.90;;;;;;5098737;27;20059;-57
2023/06/07 01:00:39;;;;;;;12.70;5.55;;;10.30;99.90;;;;;;5115173;27;20155;-58
2023/06/07 01:03:06;;;;;;;19.90;5.00;;;10.30;99.90;;;;;;5116065;27;20105;-59
2023/06/07 01:05:34;;;;;;;15.25;5.75;;;10.30;99.90;;;;;;5115389;27;20043;-56
2023/06/07 01:08:01;;;;;;;16.80;5.22;;;10.30;99.90;;;;;;5115330;27;20076;-58
2023/06/07 01:10:30;;;;;;;18.40;6.28;;;10.30;99.90;;;;;;5098742;27;20076;-59
2023/06/07 01:12:58;;;;;;;13.25;5.47;;;10.30;99.90;;;;;;5114396;27;20129;-57
2023/06/07 01:15:25;;;;;;;14.07;5.53;;;10.30;99.90;;;;;;5097787;27;20544;-58
2023/06/07 01:17:53;;;;;;;12.88;4.97;;;10.30;99.90;;;;;;5117833;27;20040;-58
2023/06/07 01:20:23;;;;;;;15.32;4.50;;;10.40;99.90;;;;;;5115668;27;20088;-58
2023/06/07 01:22:56;;;;;;;10.57;4.53;;;10.40;99.90;;;;;;5134241;27;20054;-57
2023/06/07 01:25:25;;;;;;;14.23;4.95;;;10.40;99.90;;;;;;5099023;27;20051;-58
2023/06/07 01:27:55;;;;;;;16.60;5.18;;;10.40;99.90;;;;;;5114622;27;20130;-58
2023/06/07 01:30:22;;;;;;;16.05;5.28;;;10.50;99.90;;;;;;5115257;27;20043;-58
2023/06/07 01:32:51;;;;;;;11.77;4.80;;;10.50;99.90;;;;;;5115323;27;20097;-59
2023/06/07 01:35:19;;;;;;;13.43;4.13;;;10.50;99.90;;;;;;5114910;27;20422;-58
2023/06/07 01:37:47;;;;;;;14.40;4.75;;;10.50;99.90;;;;;;5114971;27;20495;-58
2023/06/07 01:40:16;;;;;;;14.20;5.40;;;10.50;99.90;;;;;;5097020;27;20055;-59
2023/06/07 01:42:46;;;;;;;11.35;4.15;;;10.50;99.90;;;;;;5114357;27;20055;-58
2023/06/07 01:45:13;;;;;;;16.92;5.68;;;10.50;99.90;;;;;;5115901;27;20050;-57
2023/06/07 01:47:41;;;;;;;18.08;5.32;;;10.60;99.90;;;;;;5134257;27;20051;-59
2023/06/07 01:50:09;;;;;;;17.73;4.60;;;10.60;99.90;;;;;;5132237;27;20043;-58
2023/06/07 01:52:36;;;;;;;14.73;5.20;;;10.60;99.90;;;;;;5115004;27;20051;-58
2023/06/07 01:55:05;;;;;;;16.70;5.05;;;10.60;99.90;;;;;;5098492;27;20096;-58
2023/06/07 01:57:44;;;;;;;14.07;4.90;;;10.60;99.90;;;;;;5096156;27;20079;-58
2023/06/07 02:00:23;;;;;;;10.13;5.32;;;10.70;99.90;;;;;;5098257;27;20048;-58
2023/06/07 02:02:54;;;;;;;12.45;4.60;;;10.70;99.90;;;;;;5114212;27;20051;-59
2023/06/07 02:05:27;;;;;;;14.43;4.55;;;10.70;99.90;;;;;;5115093;27;20051;-57
2023/06/07 02:07:58;;;;;;;13.13;4.15;;;10.70;99.90;;;;;;5113096;27;20104;-59
2023/06/07 02:10:28;;;;;;;13.35;4.53;;;10.70;99.90;;;;;;5096861;27;20548;-58
2023/06/07 02:12:55;;;;;;;15.73;5.03;;;10.80;99.90;;;;;;5114609;27;20139;-58
2023/06/07 02:15:24;;;;;;;14.07;4.35;;;10.80;99.90;;;;;;5114478;27;20043;-57
2023/06/07 02:17:57;;;;;;;12.38;4.68;;;10.90;99.90;;;;;;5096994;27;20109;-57
2023/06/07 02:20:25;;;;;;;12.18;4.65;;;10.90;99.90;;;;;;5114714;27;20047;-59
2023/06/07 02:22:52;;;;;;;12.63;4.55;;;10.90;99.90;;;;;;5114036;27;20047;-58
2023/06/07 02:25:19;;;;;;;12.02;4.60;;;11.00;99.90;;;;;;5113960;27;20442;-59
2023/06/07 02:27:46;;;;;;;14.98;5.00;;;11.00;99.90;;;;;;5096395;27;20150;-57
2023/06/07 02:30:13;;;;;;;14.50;5.22;;;11.00;99.90;;;;;;5114248;27;20040;-58
2023/06/07 02:32:41;;;;;;;14.38;4.55;;;11.10;99.90;;;;;;5113575;27;20460;-56
2023/06/07 02:35:09;;;;;;;13.48;4.68;;;11.10;99.90;;;;;;5114004;27;20105;-58
2023/06/07 02:37:36;;;;;;;17.05;4.38;;;11.20;99.90;;;;;;5132800;27;20079;-58
2023/06/07 02:40:05;;;;;;;15.80;4.43;;;11.20;99.90;;;;;;5132522;27;20049;-57
2023/06/07 02:42:32;;;;;;;17.98;5.72;;;11.20;99.90;;;;;;5114754;27;20071;-58
2023/06/07 02:45:01;;;;;;;13.77;4.57;;;11.20;99.90;;;;;;5114807;27;20072;-58
2023/06/07 02:47:28;;;;;;;13.68;4.90;;;11.30;99.90;;;;;;5115206;27;20051;-57
2023/06/07 02:49:57;;;;;;;13.18;4.65;;;11.30;99.90;;;;;;5095673;27;20556;-57
2023/06/07 02:52:25;;;;;;;15.68;5.25;;;11.30;99.90;;;;;;5096418;27;20798;-58
2023/06/07 02:54:52;;;;;;;19.98;4.22;;;11.30;99.90;;;;;;5095823;27;20052;-58
2023/06/07 02:57:18;;;;;;;12.23;5.13;;;11.40;99.90;;;;;;5096974;27;20051;-58
2023/06/07 02:59:46;;;;;;;11.93;4.25;;;11.40;99.90;;;;;;5132039;27;20092;-57
2023/06/07 03:02:13;;;;;;;15.15;4.72;;;11.40;99.90;;;;;;5096138;27;20044;-58
2023/06/07 03:04:40;;;;;;;11.90;3.70;;;11.40;99.90;;;;;;5130643;27;20099;-58
2023/06/07 03:07:08;;;;;;;13.35;4.40;;;11.50;99.90;;;;;;5122674;27;20131;-58
2023/06/07 03:09:35;;;;;;;15.43;4.28;;;11.50;99.90;;;;;;5113592;27;20400;-58
2023/06/07 03:12:02;;;;;;;16.00;5.15;;;11.50;99.90;;;;;;5095795;27;20055;-58
2023/06/07 03:14:29;;;;;;;17.83;4.85;;;11.50;99.90;;;;;;5112780;27;20495;-58
2023/06/07 03:16:56;;;;;;;18.05;5.57;;;11.50;99.90;;;;;;5113120;27;20058;-58
2023/06/07 03:19:23;;;;;;;12.20;5.57;;;11.50;99.90;;;;;;5113484;27;20048;-58
2023/06/07 03:21:52;;;;;;;14.68;4.93;;;11.50;99.90;;;;;;5095705;27;20048;-58
2023/06/07 03:24:20;;;;;;;13.70;4.97;;;11.60;99.90;;;;;;5113564;27;20044;-58
2023/06/07 03:26:47;;;;;;;14.65;4.80;;;11.60;99.90;;;;;;5113370;27;20445;-58
2023/06/07 03:29:14;;;;;;;11.35;4.50;;;11.60;99.90;;;;;;5112856;27;20544;-57
2023/06/07 03:31:41;;;;;;;13.35;4.45;;;11.70;99.90;;;;;;5113306;27;20039;-58
2023/06/07 03:34:08;;;;;;;13.45;4.13;;;11.70;99.90;;;;;;5113456;27;20051;-58
2023/06/07 03:36:35;;;;;;;11.82;4.28;;;11.70;99.90;;;;;;5112961;27;20100;-57
2023/06/07 03:39:03;;;;;;;13.95;4.35;;;11.80;99.90;;;;;;5113432;27;20109;-57
2023/06/07 03:41:31;;;;;;;19.23;5.15;;;11.80;99.90;;;;;;5128676;27;20104;-58
2023/06/07 03:43:58;;;;;;;12.93;4.38;;;11.90;99.90;;;;;;5113408;27;20411;-58
2023/06/07 03:46:25;;;;;;;10.63;4.30;;;11.90;99.90;;;;;;5113369;27;20112;-64
2023/06/07 03:48:52;;;;;;;9.35;4.03;;;12.00;99.90;;;;;;5118778;27;20123;-59
2023/06/07 03:51:18;;;;;;;10.23;3.55;;;12.00;99.90;;;;;;5133629;27;20046;-59
2023/06/07 03:53:45;;;;;;;10.65;3.75;;;12.10;99.90;;;;;;5112807;27;20056;-58
2023/06/07 03:56:12;;;;;;;11.18;3.72;;;12.20;99.90;;;;;;5102820;27;20051;-59
2023/06/07 03:58:40;;;;;;;12.88;4.28;;;12.20;99.90;;;;;;5112071;27;20050;-59
2023/06/07 04:01:07;;;;;;;13.65;4.05;;;12.30;99.90;;;;;;5128100;27;20410;-58
2023/06/07 04:03:34;;;;;;;17.13;4.43;;;12.40;99.90;;;;;;5113833;27;20055;-58
2023/06/07 04:06:01;;;;;;;12.50;3.90;;;12.80;99.90;;;;;;5134134;27;20063;-58
2023/06/07 04:08:28;;;;;;;7.82;3.50;;;12.40;99.90;;;;;;5125696;27;20044;-59
2023/06/07 04:10:55;;;;;;;9.80;3.70;;;12.50;99.90;;;;;;5113651;27;20059;-58
2023/06/07 04:13:22;;;;;;;12.73;3.70;;;12.60;99.90;;;;;;5126754;27;20746;-59
2023/06/07 04:15:50;;;;;;;10.93;3.75;;;12.60;99.90;;;;;;5112084;27;20051;-57
2023/06/07 04:18:17;;;;;;;16.77;3.45;;;12.70;99.90;;;;;;5111915;27;20543;-59
2023/06/07 04:20:44;;;;;;;11.68;4.00;;;12.70;99.90;;;;;;5110740;27;20059;-59
2023/06/07 04:23:11;;;;;;;14.20;3.78;;;12.70;99.90;;;;;;5108702;27;20092;-58
2023/06/07 04:25:39;;;;;;;13.23;3.90;;;12.70;99.90;;;;;;5111676;27;20053;-58
2023/06/07 04:28:06;;;;;;;12.75;4.40;;;12.70;99.90;;;;;;5128309;27;20104;-58
2023/06/07 04:30:36;;;;;;;11.43;3.40;;;12.70;99.90;;;;;;5111803;27;20141;-58
2023/06/07 04:33:08;;;;;;;17.23;4.50;;;12.80;99.90;;;;;;5118992;27;20047;-59
2023/06/07 04:35:35;;;;;;;12.68;3.50;;;12.90;99.90;;;;;;5128937;27;20461;-58
2023/06/07 04:38:02;;;;;;;11.75;3.80;;;12.90;99.90;;;;;;5123287;27;20043;-59
2023/06/07 04:40:29;;;;;;;10.23;4.00;;;13.00;99.90;;;;;;5133473;27;20046;-58
2023/06/07 04:43:04;;;;;;;9.23;3.30;;;13.10;99.90;;;;;;5122733;27;20047;-59
2023/06/07 04:45:32;;;;;;;10.60;3.67;;;13.10;99.90;;;;;;5126437;27;20043;-58
2023/06/07 04:48:00;;;;;;;14.90;4.05;;;13.00;99.90;;;;;;5107567;27;20482;-59
2023/06/07 04:50:29;;;;;;;9.45;3.60;;;13.10;99.90;;;;;;5116076;27;20526;-60
2023/06/07 04:53:00;;;;;;;12.02;4.05;;;13.00;99.90;;;;;;5113528;27;20104;-58
2023/06/07 04:55:30;;;;;;;9.38;3.50;;;13.00;99.90;;;;;;5133740;27;20043;-58
2023/06/07 04:57:58;;;;;;;14.45;3.70;;;13.00;99.90;;;;;;5126072;27;20571;-59
2023/06/07 05:00:26;;;;;;;16.42;3.97;;;13.10;99.90;;;;;;5114855;27;20047;-58
2023/06/07 05:02:53;;;;;;;9.40;3.58;;;13.10;99.90;;;;;;5129898;27;20054;-59
2023/06/07 05:05:20;;;;;;;13.52;3.80;;;13.20;99.90;;;;;;5110891;27;20126;-58
2023/06/07 05:07:49;;;;;;;15.30;4.05;;;13.20;99.90;;;;;;5129138;27;20521;-58
2023/06/07 05:10:17;;;;;;;14.40;4.07;;;13.30;99.90;;;;;;5109305;27;20047;-60
2023/06/07 05:12:44;;;;;;;10.75;4.32;;;13.30;99.90;;;;;;5113492;27;20092;-59
2023/06/07 05:15:11;;;;;;;13.82;4.22;;;13.40;99.90;;;;;;5112740;27;20402;-58
2023/06/07 05:17:39;;;;;;;10.40;4.30;;;13.30;99.90;;;;;;5118185;27;20059;-59
2023/06/07 05:20:10;;;;;;;12.95;4.15;;;13.40;99.90;;;;;;5115773;27;20079;-58
2023/06/07 05:22:38;;;;;;;;;;;13.40;99.90;;;;;;5127020;27;20395;-59
2023/06/07 05:25:08;;;;;;;10.95;3.63;;;13.40;99.90;;;;;;5122190;27;19935;-59
2023/06/07 05:27:35;;;;;;;;;;;13.40;99.90;;;;;;5123223;27;20048;-59
2023/06/07 05:30:03;;;;;;;12.25;3.50;;;13.50;99.90;;;;;;5113206;27;19927;-58
2023/06/07 05:32:30;;;;;;;14.93;3.63;;;13.60;99.90;;;;;;5129289;27;20511;-58
2023/06/07 05:34:57;;;;;;;15.95;4.55;;;13.50;99.90;;;;;;5122937;27;20050;-59
2023/06/07 05:37:25;;;;;;;15.05;4.05;;;13.70;99.90;;;;;;5128150;27;20046;-59
2023/06/07 05:39:51;;;;;;;10.60;3.90;;;13.80;99.90;;;;;;5109031;27;20058;-57
2023/06/07 05:42:20;;;;;;;11.98;3.80;;;13.80;99.90;;;;;;5111226;27;20054;-58
2023/06/07 05:44:47;;;;;;;11.63;3.67;;;13.90;99.90;;;;;;5113116;27;20504;-58
2023/06/07 05:47:14;;;;;;;13.38;3.90;;;14.00;99.90;;;;;;5112743;27;20052;-59
2023/06/07 05:49:42;;;;;;;9.25;3.10;;;14.00;99.90;;;;;;5111731;27;20565;-58
2023/06/07 05:52:09;;;;;;;8.93;3.38;;;14.10;99.90;;;;;;5120946;27;20428;-58
2023/06/07 05:54:37;;;;;;;9.80;3.42;;;14.10;99.90;;;;;;5112737;27;20044;-57
2023/06/07 05:57:05;;;;;;;11.85;3.88;;;14.20;99.90;;;;;;5113237;27;20099;-58
2023/06/07 05:59:35;;;;;;;12.30;3.72;;;14.30;99.90;;;;;;5113438;27;20535;-59
2023/06/07 06:02:01;;;;;;;8.38;3.42;;;14.40;99.90;;;;;;5113017;27;20047;-60
2023/06/07 06:04:29;;;;;;;9.82;3.58;;;14.50;99.90;;;;;;5133214;27;20092;-58
2023/06/07 06:06:56;;;;;;;11.13;4.13;;;14.60;99.90;;;;;;5122740;27;20395;-59
2023/06/07 06:09:23;;;;;;;7.05;3.28;;;14.80;99.90;;;;;;5130418;27;20119;-58
2023/06/07 06:11:51;;;;;;;7.22;3.20;;;14.90;99.90;;;;;;5125977;27;20047;-58
2023/06/07 06:14:20;;;;;;;9.55;3.15;;;15.10;99.90;;;;;;5127975;27;20096;-59
2023/06/07 06:16:48;;;;;;;8.43;3.83;;;15.10;99.90;;;;;;5109302;27;20070;-59
2023/06/07 06:19:16;;;;;;;10.00;3.83;;;15.10;99.90;;;;;;5129149;27;20467;-59
2023/06/07 06:21:43;;;;;;;9.52;3.83;;;15.10;99.90;;;;;;5116076;27;20074;-59
2023/06/07 06:24:09;;;;;;;8.68;3.30;;;15.20;99.90;;;;;;5124527;27;20047;-58
2023/06/07 06:26:36;;;;;;;8.13;2.92;;;15.40;99.90;;;;;;5095383;27;20043;-59
2023/06/07 06:29:03;;;;;;;11.93;3.78;;;15.50;99.90;;;;;;5114105;27;20108;-59
2023/06/07 06:31:30;;;;;;;10.65;3.88;;;15.50;99.90;;;;;;5113751;27;20400;-59
2023/06/07 06:33:59;;;;;;;9.20;4.00;;;15.60;99.90;;;;;;5114143;27;20051;-60
2023/06/07 06:36:26;;;;;;;18.98;3.97;;;15.70;99.90;;;;;;5097622;27;20104;-59
2023/06/07 06:38:53;;;;;;;11.93;3.78;;;15.60;99.90;;;;;;5113528;27;20171;-59
2023/06/07 06:41:20;;;;;;;12.35;3.85;;;15.70;99.90;;;;;;5113469;27;20075;-59
2023/06/07 06:43:47;;;;;;;10.75;3.85;;;15.70;99.90;;;;;;5127557;27;20090;-60
2023/06/07 06:46:14;;;;;;;12.80;3.80;;;15.90;99.90;;;;;;5113624;27;20054;-59
2023/06/07 06:48:41;;;;;;;10.95;3.65;;;16.10;99.90;;;;;;5113691;27;20453;-59
2023/06/07 06:51:09;;;;;;;8.88;3.70;;;16.20;99.90;;;;;;5114340;27;20051;-59
2023/06/07 06:53:36;;;;;;;11.38;2.90;;;16.20;99.90;;;;;;5112978;27;20099;-59
2023/06/07 06:56:03;;;;;;;8.55;3.30;;;16.30;99.90;;;;;;5114781;27;20082;-60
2023/06/07 06:58:30;;;;;;;11.85;3.20;;;16.50;99.90;;;;;;5095686;27;20047;-58
2023/06/07 07:00:57;;;;;;;9.07;3.20;;;16.60;99.90;;;;;;5114000;27;20044;-59
2023/06/07 07:03:24;;;;;;;11.73;3.08;;;16.70;99.90;;;;;;5113786;27;20120;-59
2023/06/07 07:05:51;;;;;;;7.35;4.10;;;16.70;99.90;;;;;;5096654;27;20051;-59
2023/06/07 07:08:19;;;;;;;9.95;3.50;;;16.80;99.90;;;;;;5095513;27;20055;-60
2023/06/07 07:10:47;;;;;;;8.70;3.53;;;17.00;99.90;;;;;;5096701;27;20058;-60
2023/06/07 07:13:14;;;;;;;7.45;2.95;;;17.00;99.90;;;;;;5115284;27;20043;-59
2023/06/07 07:15:41;;;;;;;11.15;2.88;;;17.20;99.90;;;;;;5096595;27;20051;-60
2023/06/07 07:18:08;;;;;;;9.98;3.40;;;17.40;99.90;;;;;;5114674;28;20116;-61
2023/06/07 07:20:36;;;;;;;6.65;2.60;;;17.80;99.90;;;;;;5095497;27;20436;-60
2023/06/07 07:23:03;;;;;;;10.02;3.33;;;18.10;99.90;;;;;;5114697;27;20068;-60
2023/06/07 07:25:31;;;;;;;7.40;3.00;;;18.30;99.90;;;;;;5118126;27;20072;-59
2023/06/07 07:27:58;;;;;;;7.32;3.00;;;18.50;99.90;;;;;;5099940;27;20104;-60
2023/06/07 07:30:25;;;;;;;13.00;3.50;;;18.70;99.90;;;;;;5122669;27;20044;-59
2023/06/07 07:32:53;;;;;;;7.00;3.10;;;18.60;99.90;;;;;;5117665;27;20056;-58
2023/06/07 07:35:20;;;;;;;6.43;2.78;;;18.40;99.90;;;;;;5116259;27;20051;-59
2023/06/07 07:37:47;;;;;;;10.32;2.75;;;18.50;99.90;;;;;;5117904;27;20051;-59
2023/06/07 07:40:14;;;;;;;5.22;2.95;;;18.50;99.90;;;;;;5117452;27;20077;-60
2023/06/07 07:42:43;;;;;;;8.45;2.85;;;18.60;99.90;;;;;;5116941;27;20078;-60
2023/06/07 07:45:10;;;;;;;11.85;3.35;;;18.80;99.90;;;;;;5100722;27;20056;-59
2023/06/07 07:47:37;;;;;;;16.35;3.65;;;19.20;99.90;;;;;;5118744;27;20101;-59
2023/06/07 07:50:07;;;;;;;9.05;2.92;;;20.20;99.90;;;;;;5099893;27;20085;-60
2023/06/07 07:52:33;;;;;;;8.35;3.03;;;20.80;99.90;;;;;;5116310;27;20092;-60
2023/06/07 07:55:02;;;;;;;14.93;3.25;;;21.30;99.90;;;;;;5099387;27;20159;-59
2023/06/07 07:57:29;;;;;;;7.88;2.92;;;21.10;99.50;;;;;;5117608;27;20407;-59
2023/06/07 07:59:57;;;;;;;8.82;2.63;;;21.30;99.20;;;;;;5099039;27;20040;-58
2023/06/07 08:02:24;;;;;;;8.70;3.03;;;21.20;98.50;;;;;;5116434;27;20046;-59
2023/06/07 08:04:53;;;;;;;6.10;2.55;;;21.60;98.40;;;;;;5131136;27;20088;-59
2023/06/07 08:07:20;;;;;;;7.17;3.17;;;21.80;97.80;;;;;;5099030;27;20047;-60
2023/06/07 08:09:47;;;;;;;10.73;2.67;;;22.20;97.30;;;;;;5116285;27;20634;-60
2023/06/07 08:12:14;;;;;;;8.00;2.72;;;22.20;96.60;;;;;;5099632;27;20107;-59
2023/06/07 08:14:40;;;;;;;10.27;2.75;;;22.40;96.30;;;;;;5116703;27;20469;-59
2023/06/07 08:17:09;;;;;;;11.48;2.50;;;22.70;95.90;;;;;;5116213;27;20482;-60
2023/06/07 08:19:35;;;;;;;9.35;3.13;;;22.80;94.50;;;;;;5116534;27;20549;-59
2023/06/07 08:22:02;;;;;;;6.07;2.58;;;22.80;94.90;;;;;;5117084;27;20456;-60
2023/06/07 08:24:29;;;;;;;7.68;2.40;;;23.20;94.80;;;;;;5116047;27;20380;-59
2023/06/07 08:26:56;;;;;;;7.68;3.20;;;23.30;94.50;;;;;;5115374;27;20115;-60
2023/06/07 08:29:23;;;;;;;9.32;2.75;;;23.30;94.10;;;;;;5135723;27;20047;-60
2023/06/07 08:31:50;;;;;;;7.32;2.40;;;23.60;94.30;;;;;;5152491;27;20046;-60
2023/06/07 08:34:19;;;;;;;6.18;2.60;;;23.80;93.50;;;;;;5154735;27;21338;-60
2023/06/07 08:36:47;;;;;;;10.23;2.92;;;24.00;92.50;;;;;;5136636;27;20066;-61
2023/06/07 08:39:14;;;;;;;7.10;2.72;;;24.00;92.70;;;;;;5133569;27;20042;-60
2023/06/07 08:41:41;;;;;;;9.82;3.15;;;24.40;92.40;;;;;;5098739;27;20055;-60
2023/06/07 08:44:08;;;;;;;8.18;2.95;;;24.40;92.40;;;;;;5115413;27;20092;-60
2023/06/07 08:46:36;;;;;;;8.27;2.95;;;24.20;92.10;;;;;;5098808;27;20376;-60
2023/06/07 08:49:05;;;;;;;5.22;2.53;;;24.50;91.90;;;;;;5099401;27;20044;-60
2023/06/07 08:51:37;;;;;;;5.97;2.72;;;24.60;91.90;;;;;;5115751;27;20130;-61
2023/06/07 08:54:05;;;;;;;7.15;2.80;;;24.70;91.00;;;;;;5116258;27;20112;-61
2023/06/07 08:56:33;;;;;;;13.30;2.97;;;24.90;90.20;;;;;;5099423;27;20092;-60
2023/06/07 08:59:00;;;;;;;7.80;2.85;;;25.00;90.80;;;;;;5115275;27;20039;-62
2023/06/07 09:01:29;;;;;;;6.97;2.88;;;24.90;90.90;;;;;;5099064;27;20047;-59
2023/06/07 09:03:57;;;;;;;7.28;2.95;;;24.60;90.30;;;;;;5133262;27;20086;-59
2023/06/07 09:06:25;;;;;;;7.38;2.92;;;25.00;90.50;;;;;;5124796;27;20051;-60
2023/06/07 09:08:54;;;;;;;7.27;2.87;;;25.40;90.40;;;;;;5115635;27;20048;-60
2023/06/07 09:11:21;;;;;;;10.55;3.53;;;25.30;88.20;;;;;;5099917;27;20293;-61
2023/06/07 09:13:48;;;;;;;8.60;3.63;;;25.40;89.90;;;;;;5115393;27;20071;-60
2023/06/07 09:16:15;;;;;;;8.10;2.90;;;25.60;89.80;;;;;;5099294;27;20097;-59
2023/06/07 09:18:43;;;;;;;14.13;3.00;;;25.60;89.50;;;;;;5098079;27;20055;-60
2023/06/07 09:21:21;;;;;;;18.98;4.90;;;25.50;89.40;;;;;;5098544;27;20054;-60
2023/06/07 09:23:48;;;;;;;10.07;3.05;;;25.60;88.10;;;;;;5134991;27;20061;-59
2023/06/07 09:26:17;;;;;;;9.40;3.20;;;25.80;89.10;;;;;;5135183;27;20070;-60
2023/06/07 09:28:45;;;;;;;10.13;3.13;;;25.70;87.80;;;;;;5154384;27;20118;-60
2023/06/07 09:31:12;;;;;;;6.15;2.88;;;25.80;88.20;;;;;;5135558;27;20050;-60
2023/06/07 09:33:39;;;;;;;8.27;3.08;;;26.10;87.60;;;;;;5153436;27;20051;-59
2023/06/07 09:36:09;;;;;;;7.20;2.88;;;26.20;87.00;;;;;;5135788;27;20046;-59
2023/06/07 09:38:36;;;;;;;6.80;2.65;;;26.20;86.50;;;;;;5153712;27;20038;-61
2023/06/07 09:41:05;;;;;;;9.18;3.55;;;26.30;86.40;;;;;;5153663;27;20119;-59
2023/06/07 09:43:43;;;;;;;;;;;26.30;85.30;;;;;;5154187;27;20103;-60
2023/06/07 09:46:10;;;;;;;9.48;3.22;;;26.50;83.30;;;;;;5134476;27;19998;-60
2023/06/07 09:48:48;;;;;;;7.55;4.03;;;26.50;84.80;;;;;;5133935;27;20102;-60
2023/06/07 09:51:15;;;;;;;8.63;3.83;;;26.20;84.20;;;;;;5113885;27;20055;-59
2023/06/07 09:53:53;;;;;;;10.52;3.83;;;26.50;86.10;;;;;;5115648;27;20075;-61
2023/06/07 09:56:21;;;;;;;7.13;3.13;;;26.60;85.40;;;;;;5096699;27;21336;-60
2023/06/07 09:58:51;;;;;;;8.73;3.42;;;27.00;85.40;;;;;;5132673;27;20051;-60
2023/06/07 10:01:34;;;;;;;6.30;3.10;;;27.10;83.70;;;;;;5114298;27;20043;-59
2023/06/07 10:04:02;;;;;;;10.60;3.60;;;27.40;82.20;;;;;;5097463;27;20089;-60
2023/06/07 10:06:32;;;;;;;6.80;3.08;;;27.40;83.90;;;;;;5098325;27;20052;-60
2023/06/07 10:09:02;;;;;;;9.02;3.20;;;27.40;84.00;;;;;;5133876;27;20091;-60
2023/06/07 10:11:31;;;;;;;8.95;3.25;;;27.30;83.40;;;;;;5152590;27;20403;-59
2023/06/07 10:14:04;;;;;;;7.72;3.15;;;27.00;83.00;;;;;;5135135;27;20478;-61
2023/06/07 10:16:35;;;;;;;6.85;3.17;;;27.20;83.50;;;;;;5134328;27;20057;-60
2023/06/07 10:19:07;;;;;;;8.75;3.13;;;27.10;83.00;;;;;;5134783;27;20053;-61
2023/06/07 10:21:37;;;;;;;11.18;3.20;;;27.50;83.20;;;;;;5138313;27;20048;-60
2023/06/07 10:24:10;;;;;;;9.73;3.53;;;27.70;82.70;;;;;;5096731;27;20044;-61
2023/06/07 10:26:48;;;;;;;7.15;3.33;;;27.80;81.40;;;;;;5128376;27;20487;-60
2023/06/07 10:29:20;;;;;;;9.07;3.47;;;28.20;81.50;;;;;;5114409;27;20057;-60
2023/06/07 10:31:51;;;;;;;7.32;2.92;;;28.00;81.00;;;;;;5097571;27;20233;-60
2023/06/07 10:34:21;;;;;;;5.65;2.67;;;27.80;80.90;;;;;;5097918;27;20047;-60
2023/06/07 10:36:47;;;;;;;8.70;3.22;;;27.80;81.10;;;;;;5096241;27;20124;-61
2023/06/07 10:39:15;;;;;;;7.50;3.00;;;27.70;81.60;;;;;;5097527;27;20075;-60
2023/06/07 10:41:43;;;;;;;8.68;3.15;;;27.30;81.10;;;;;;5096388;27;20393;-60
2023/06/07 10:44:11;;;;;;;7.15;3.10;;;27.60;81.20;;;;;;5113404;27;20039;-60
2023/06/07 10:46:40;;;;;;;8.02;3.20;;;27.70;81.60;;;;;;5116095;27;20093;-61
2023/06/07 10:49:35;;;;;;;8.57;3.53;;;28.10;80.70;;;;;;5096499;27;20114;-60
2023/06/07 10:52:03;;;;;;;10.32;3.15;;;28.10;79.10;;;;;;5095467;27;20047;-61
2023/06/07 10:54:30;;;;;;;7.65;3.42;;;27.70;80.70;;;;;;5114215;27;20044;-60
2023/06/07 10:56:57;;;;;;;12.50;4.20;;;28.20;80.80;;;;;;5113943;27;20087;-62
2023/06/07 10:59:26;;;;;;;9.18;3.70;;;28.00;80.70;;;;;;5112849;27;20046;-60
2023/06/07 11:02:14;;;;;;;8.55;3.30;;;27.80;80.80;;;;;;5113765;27;20100;-60
2023/06/07 11:04:51;;;;;;;6.88;3.30;;;27.80;80.30;;;;;;5095020;27;20098;-60
2023/06/07 11:07:20;;;;;;;7.97;3.05;;;27.60;79.80;;;;;;5106123;28;20057;-60
2023/06/07 11:09:49;;;;;;;6.03;2.53;;;27.90;80.10;;;;;;5130775;27;20073;-60
2023/06/07 11:12:57;;;;;;;9.00;3.25;;;28.20;79.60;;;;;;5127720;27;20122;-59
2023/06/07 11:15:30;;;;;;;8.23;3.22;;;28.20;78.50;;;;;;5069061;27;20129;-60
2023/06/07 11:17:59;;;;;;;7.05;3.00;;;27.90;79.20;;;;;;5134059;27;20451;-60
2023/06/07 11:20:51;;;;;;;8.10;3.03;;;27.90;79.60;;;;;;5151690;27;20451;-60
2023/06/07 11:23:25;;;;;;;7.22;3.03;;;28.50;79.40;;;;;;5152583;27;20055;-60
2023/06/07 11:25:53;;;;;;;9.48;2.90;;;28.00;78.80;;;;;;5117026;27;20048;-60
2023/06/07 11:28:26;;;;;;;9.37;3.17;;;28.40;79.50;;;;;;5114565;28;20051;-60
2023/06/07 11:30:54;;;;;;;8.63;3.40;;;28.20;79.00;;;;;;5095864;27;20782;-59
2023/06/07 11:33:22;;;;;;;5.82;2.80;;;28.10;78.60;;;;;;5112788;27;20035;-60
2023/06/07 11:35:49;;;;;;;6.32;2.70;;;27.70;79.10;;;;;;5113831;27;20159;-59
2023/06/07 11:38:17;;;;;;;6.85;2.67;;;28.20;79.80;;;;;;5096728;27;20100;-60
2023/06/07 11:40:44;;;;;;;7.35;2.53;;;28.30;79.60;;;;;;5115333;27;20040;-60
2023/06/07 11:43:11;;;;;;;9.35;3.25;;;28.30;79.70;;;;;;5122274;27;20043;-60
2023/06/07 11:45:40;;;;;;;6.93;3.00;;;28.40;79.00;;;;;;5097076;27;20180;-61
2023/06/07 11:48:07;;;;;;;;;;;28.20;78.10;;;;;;5095875;27;20445;-61
2023/06/07 11:50:37;;;;;;;8.35;2.95;;;28.50;78.20;;;;;;5109263;28;19963;-60
2023/06/07 11:53:05;;;;;;;7.40;2.92;;;28.70;78.50;;;;;;5113954;28;20134;-60
2023/06/07 11:55:32;;;;;;;8.27;3.28;;;28.70;78.80;;;;;;5129268;27;20045;-59
2023/06/07 11:58:02;;;;;;;6.72;2.80;;;28.70;77.70;;;;;;5113111;27;20043;-59
2023/06/07 12:00:31;;;;;;;7.32;2.72;;;28.50;77.30;;;;;;5113253;27;20491;-60
2023/06/07 12:02:58;;;;;;;8.63;3.08;;;28.90;77.30;;;;;;5112700;27;20048;-60
2023/06/07 12:05:30;;;;;;;7.63;3.35;;;28.70;77.40;;;;;;5113523;27;20105;-60
2023/06/07 12:08:04;;;;;;;9.45;2.72;;;28.40;77.70;;;;;;5126587;27;20129;-59
2023/06/07 12:10:31;;;;;;;9.35;3.22;;;28.20;77.90;;;;;;5153526;27;20482;-60
2023/06/07 12:13:09;;;;;;;8.45;3.08;;;28.20;77.90;;;;;;5155721;27;20044;-60
2023/06/07 12:15:41;;;;;;;8.63;2.95;;;28.40;77.60;;;;;;5133309;27;20128;-60
2023/06/07 12:18:12;;;;;;;8.40;2.72;;;28.70;78.10;;;;;;5098976;27;20563;-60
2023/06/07 12:20:40;;;;;;;7.90;3.17;;;28.50;77.30;;;;;;5099621;27;20129;-61
2023/06/07 12:23:08;;;;;;;7.18;3.10;;;28.30;77.40;;;;;;5127503;27;20484;-61
2023/06/07 12:25:35;;;;;;;7.57;3.00;;;28.40;77.30;;;;;;5116890;27;20134;-60
2023/06/07 12:28:07;;;;;;;9.57;3.10;;;28.50;77.60;;;;;;5116780;27;20044;-61
2023/06/07 12:30:34;;;;;;;9.77;3.00;;;28.30;76.80;;;;;;5116647;27;20047;-60
2023/06/07 12:33:01;;;;;;;8.18;3.08;;;28.30;77.10;;;;;;5099272;27;20097;-60
2023/06/07 12:35:38;;;;;;;7.00;2.90;;;28.30;77.20;;;;;;5133641;27;20403;-59
2023/06/07 12:38:05;;;;;;;7.95;3.15;;;28.50;76.90;;;;;;5117949;27;20046;-59
2023/06/07 12:40:33;;;;;;;7.63;3.08;;;28.60;77.50;;;;;;5099320;27;20560;-61
2023/06/07 12:43:00;;;;;;;6.93;2.88;;;28.20;77.10;;;;;;5099230;27;20043;-60
2023/06/07 12:45:27;;;;;;;6.57;3.20;;;27.90;77.10;;;;;;5116201;27;20514;-59
2023/06/07 12:47:54;;;;;;;9.35;3.88;;;28.00;77.80;;;;;;5116294;27;20047;-59
2023/06/07 12:50:21;;;;;;;8.02;2.78;;;28.20;77.70;;;;;;5115813;27;20093;-59